createdAt,value
2022-12-11T00:01:11.903Z,4.55
2022-12-11T00:03:40.175Z,2.90
2022-12-11T00:06:11.116Z,3.13
2022-12-11T00:08:40.217Z,6.38
2022-12-11T00:11:09.968Z,3.30
2022-12-11T00:13:38.934Z,1.83
2022-12-11T00:16:07.310Z,4.20
2022-12-11T00:18:35.572Z,3.78
2022-12-11T00:21:04.503Z,4.38
2022-12-11T00:23:35.861Z,4.53
2022-12-11T00:26:06.627Z,3.47
2022-12-11T00:28:34.872Z,3.05
2022-12-11T00:31:05.073Z,2.95
2022-12-11T00:33:33.352Z,5.28
2022-12-11T00:36:04.338Z,3.50
2022-12-11T00:38:33.994Z,3.95
2022-12-11T00:41:03.435Z,2.80
2022-12-11T00:43:31.523Z,2.38
2022-12-11T00:46:00.136Z,1.98
2022-12-11T00:48:28.471Z,2.08
2022-12-11T00:50:57.524Z,3.70
2022-12-11T00:53:28.701Z,2.58
2022-12-11T00:55:59.225Z,2.78
2022-12-11T00:58:27.565Z,4.13
2022-12-11T01:00:56.761Z,2.47
2022-12-11T01:03:25.069Z,2.63
2022-12-11T01:05:54.899Z,2.47
2022-12-11T01:08:25.103Z,2.80
2022-12-11T01:10:54.432Z,4.15
2022-12-11T01:13:24.596Z,2.25
2022-12-11T01:15:52.759Z,2.50
2022-12-11T01:18:21.470Z,2.70
2022-12-11T01:20:49.667Z,3.45
2022-12-11T01:23:18.249Z,4.97
2022-12-11T01:25:46.695Z,3.75
2022-12-11T01:28:14.869Z,2.47
2022-12-11T01:30:45.126Z,1.55
2022-12-11T01:33:14.583Z,3.20
2022-12-11T01:35:43.359Z,2.38
2022-12-11T01:38:11.901Z,2.92
2022-12-11T01:40:40.320Z,3.92
2022-12-11T01:43:12.117Z,4.07
2022-12-11T01:45:41.258Z,2.92
2022-12-11T01:48:12.617Z,2.95
2022-12-11T01:50:42.988Z,2.30
2022-12-11T01:53:13.996Z,3.95
2022-12-11T01:55:43.223Z,1.52
2022-12-11T01:58:12.016Z,2.38
2022-12-11T02:00:40.446Z,2.25
2022-12-11T02:03:09.383Z,2.97
2022-12-11T02:05:40.166Z,1.65
2022-12-11T02:08:09.511Z,4.07
2022-12-11T02:10:45.285Z,3.85
2022-12-11T02:13:16.872Z,2.05
2022-12-11T02:15:49.907Z,5.65
2022-12-11T02:18:21.510Z,2.35
2022-12-11T02:20:55.936Z,2.20
2022-12-11T02:23:35.818Z,3.22
2022-12-11T02:26:10.290Z,1.90
2022-12-11T02:28:42.061Z,1.58
2022-12-11T02:31:14.266Z,2.22
2022-12-11T02:33:44.338Z,1.90
2022-12-11T02:36:13.086Z,3.25
2022-12-11T02:38:46.941Z,2.20
2022-12-11T02:41:15.268Z,3.42
2022-12-11T02:43:45.892Z,3.05
2022-12-11T02:46:14.604Z,3.92
2022-12-11T02:48:43.866Z,5.05
2022-12-11T02:51:12.858Z,3.60
2022-12-11T02:53:44.268Z,2.25
2022-12-11T02:56:14.949Z,3.58
2022-12-11T02:58:48.372Z,4.03
2022-12-11T03:01:18.295Z,2.65
2022-12-11T03:03:46.825Z,3.70
2022-12-11T03:06:20.902Z,2.25
2022-12-11T03:08:52.137Z,1.23
2022-12-11T03:11:20.456Z,3.50
2022-12-11T03:13:49.962Z,2.05
2022-12-11T03:16:25.657Z,6.15
2022-12-11T03:18:57.566Z,1.73
2022-12-11T03:21:29.171Z,1.95
2022-12-11T03:24:01.244Z,1.85
2022-12-11T03:26:29.822Z,1.52
2022-12-11T03:29:01.111Z,1.42
2022-12-11T03:31:31.456Z,3.17
2022-12-11T03:34:00.990Z,2.65
2022-12-11T03:36:33.283Z,2.28
2022-12-11T03:39:02.826Z,3.10
2022-12-11T03:41:32.554Z,3.60
2022-12-11T03:44:02.094Z,4.05
2022-12-11T03:46:32.522Z,2.50
2022-12-11T03:49:03.947Z,1.75
2022-12-11T03:51:33.853Z,4.55
2022-12-11T03:54:02.857Z,2.45
2022-12-11T03:56:32.959Z,1.63
2022-12-11T03:59:02.941Z,1.70
2022-12-11T04:01:31.490Z,2.55
2022-12-11T04:03:59.565Z,2.08
2022-12-11T04:06:27.658Z,3.40
2022-12-11T04:08:55.933Z,0.88
2022-12-11T04:11:36.107Z,1.60
2022-12-11T04:14:32.220Z,1.33
2022-12-11T04:17:01.022Z,1.20
2022-12-11T04:19:57.570Z,2.35
2022-12-11T04:22:42.682Z,1.90
2022-12-11T04:25:11.293Z,1.52
2022-12-11T04:27:51.864Z,2.78
2022-12-11T04:30:22.996Z,1.85
2022-12-11T04:32:51.258Z,3.03
2022-12-11T04:35:19.696Z,1.75
2022-12-11T04:37:48.233Z,1.60
2022-12-11T04:40:18.082Z,3.70
2022-12-11T04:42:47.673Z,3.22
2022-12-11T04:45:16.134Z,3.97
2022-12-11T04:47:45.840Z,3.75
2022-12-11T04:50:14.910Z,2.95
2022-12-11T04:52:43.420Z,7.53
2022-12-11T04:55:12.296Z,1.80
2022-12-11T04:57:40.612Z,1.20
2022-12-11T05:00:09.870Z,2.58
2022-12-11T05:02:39.125Z,2.45
2022-12-11T05:05:11.127Z,1.65
2022-12-11T05:07:39.660Z,1.50
2022-12-11T05:10:08.240Z,4.68
2022-12-11T05:12:36.607Z,1.90
2022-12-11T05:15:05.242Z,2.50
2022-12-11T05:17:33.535Z,3.22
2022-12-11T05:20:01.778Z,2.95
2022-12-11T05:22:32.138Z,1.73
2022-12-11T05:25:00.593Z,2.53
2022-12-11T05:27:28.823Z,2.67
2022-12-11T05:29:59.566Z,1.92
2022-12-11T05:32:28.500Z,2.40
2022-12-11T05:34:56.873Z,2.40
2022-12-11T05:37:24.747Z,4.97
2022-12-11T05:39:54.501Z,1.85
2022-12-11T05:42:28.654Z,2.38
2022-12-11T05:44:58.371Z,3.20
2022-12-11T05:47:26.518Z,1.60
2022-12-11T05:49:54.720Z,1.67
2022-12-11T05:52:23.056Z,1.75
2022-12-11T05:54:52.494Z,3.50
2022-12-11T05:57:22.510Z,2.53
2022-12-11T05:59:50.682Z,3.40
2022-12-11T06:02:18.494Z,2.15
2022-12-11T06:04:46.579Z,2.17
2022-12-11T06:07:15.034Z,23.20
2022-12-11T06:09:43.219Z,2.00
2022-12-11T06:12:11.330Z,1.77
2022-12-11T06:14:42.127Z,2.58
2022-12-11T06:17:10.251Z,3.05
2022-12-11T06:19:38.997Z,2.08
2022-12-11T06:22:07.103Z,1.98
2022-12-11T06:24:35.530Z,2.70
2022-12-11T06:27:03.559Z,3.33
2022-12-11T06:29:31.320Z,2.13
2022-12-11T06:32:01.134Z,1.55
2022-12-11T06:34:30.471Z,1.95
2022-12-11T06:36:58.507Z,2.63
2022-12-11T06:39:26.895Z,0.75
2022-12-11T06:41:55.199Z,2.75
2022-12-11T06:44:23.266Z,4.30
2022-12-11T06:46:51.608Z,4.75
2022-12-11T06:49:22.001Z,2.50
2022-12-11T06:51:49.974Z,2.97
2022-12-11T06:54:18.606Z,1.73
2022-12-11T06:56:47.005Z,3.13
2022-12-11T06:59:15.011Z,2.17
2022-12-11T07:01:43.021Z,1.27
2022-12-11T07:04:11.305Z,1.58
2022-12-11T07:06:41.690Z,1.60
2022-12-11T07:09:10.261Z,2.45
2022-12-11T07:11:39.518Z,3.70
2022-12-11T07:14:07.726Z,3.60
2022-12-11T07:16:36.238Z,3.40
2022-12-11T07:19:04.835Z,2.15
2022-12-11T07:21:33.323Z,2.58
2022-12-11T07:24:03.285Z,2.30
2022-12-11T07:26:31.476Z,3.60
2022-12-11T07:28:59.422Z,5.40
2022-12-11T07:31:28.462Z,3.30
2022-12-11T07:33:57.062Z,4.80
2022-12-11T07:36:25.382Z,2.83
2022-12-11T07:38:55.834Z,1.60
2022-12-11T07:41:28.175Z,2.75
2022-12-11T07:43:56.571Z,3.92
2022-12-11T07:46:25.778Z,3.40
2022-12-11T07:48:54.247Z,1.52
2022-12-11T07:51:26.803Z,2.38
2022-12-11T07:53:56.051Z,2.47
2022-12-11T07:56:26.424Z,2.75
2022-12-11T07:58:56.683Z,3.33
2022-12-11T08:01:26.915Z,3.55
2022-12-11T08:03:55.490Z,6.25
2022-12-11T08:06:26.845Z,3.65
2022-12-11T08:08:54.889Z,2.90
2022-12-11T08:11:22.902Z,8.55
2022-12-11T08:13:52.643Z,6.95
2022-12-11T08:16:20.683Z,5.03
2022-12-11T08:18:50.385Z,2.28
2022-12-11T08:21:19.934Z,2.67
2022-12-11T08:23:48.398Z,2.90
2022-12-11T08:26:20.210Z,4.43
2022-12-11T08:28:49.158Z,7.03
2022-12-11T08:31:19.445Z,5.20
2022-12-11T08:33:48.469Z,6.28
2022-12-11T08:36:17.473Z,2.88
2022-12-11T08:38:46.590Z,7.68
2022-12-11T08:41:17.602Z,2.75
2022-12-11T08:43:45.865Z,4.22
2022-12-11T08:46:14.540Z,3.40
2022-12-11T08:48:44.881Z,3.10
2022-12-11T08:51:14.406Z,7.55
2022-12-11T08:53:42.908Z,5.80
2022-12-11T08:56:12.452Z,7.13
2022-12-11T08:58:40.948Z,5.57
2022-12-11T09:01:10.569Z,9.50
2022-12-11T09:03:41.894Z,6.88
2022-12-11T09:06:14.314Z,6.70
2022-12-11T09:08:44.913Z,7.25
2022-12-11T09:11:17.730Z,6.03
2022-12-11T09:13:46.316Z,6.60
2022-12-11T09:16:15.991Z,9.80
2022-12-11T09:18:44.446Z,8.00
2022-12-11T09:21:15.649Z,4.18
2022-12-11T09:23:44.835Z,6.22
2022-12-11T09:26:14.438Z,7.05
2022-12-11T09:28:46.245Z,6.72
2022-12-11T09:31:17.171Z,7.25
2022-12-11T09:33:45.993Z,8.02
2022-12-11T09:36:15.632Z,6.68
2022-12-11T09:38:44.183Z,9.02
2022-12-11T09:41:30.930Z,6.07
2022-12-11T09:44:02.788Z,5.90
2022-12-11T09:46:34.375Z,10.25
2022-12-11T09:49:03.529Z,6.68
2022-12-11T09:51:38.198Z,9.15
2022-12-11T09:54:06.397Z,8.52
2022-12-11T09:56:35.744Z,7.28
2022-12-11T09:59:08.194Z,6.22
2022-12-11T10:01:40.926Z,7.07
2022-12-11T10:04:17.353Z,5.10
2022-12-11T10:06:50.273Z,10.80
2022-12-11T10:09:21.815Z,9.30
2022-12-11T10:11:56.748Z,6.95
2022-12-11T10:14:31.395Z,7.55
2022-12-11T10:17:01.659Z,7.97
2022-12-11T10:19:31.222Z,5.57
2022-12-11T10:22:01.426Z,6.95
2022-12-11T10:25:09.381Z,6.22
2022-12-11T10:27:24.477Z,7.25
2022-12-11T10:29:55.513Z,7.68
2022-12-11T10:32:25.365Z,6.68
2022-12-11T10:34:57.199Z,7.13
2022-12-11T10:37:27.422Z,5.88
2022-12-11T10:39:55.512Z,9.80
2022-12-11T10:42:24.131Z,6.35
2022-12-11T10:44:59.118Z,6.75
2022-12-11T10:47:27.285Z,6.63
2022-12-11T10:49:58.475Z,7.30
2022-12-11T10:52:29.786Z,6.30
2022-12-11T10:54:59.887Z,7.60
2022-12-11T10:57:29.863Z,6.07
2022-12-11T10:59:58.436Z,8.13
2022-12-11T11:02:27.529Z,6.03
2022-12-11T11:04:56.583Z,6.20
2022-12-11T11:07:25.472Z,5.72
2022-12-11T11:10:06.793Z,5.90
2022-12-11T11:12:38.949Z,5.88
2022-12-11T11:15:08.738Z,5.63
2022-12-11T11:17:54.237Z,7.93
2022-12-11T11:20:24.677Z,6.32
2022-12-11T11:22:54.947Z,7.60
2022-12-11T11:25:26.227Z,7.75
2022-12-11T11:27:55.451Z,7.80
2022-12-11T11:30:26.680Z,6.40
2022-12-11T11:32:56.045Z,5.25
2022-12-11T11:35:25.800Z,4.43
2022-12-11T11:37:57.075Z,6.07
2022-12-11T11:40:29.814Z,5.85
2022-12-11T11:43:03.604Z,5.30
2022-12-11T11:45:34.603Z,5.75
2022-12-11T11:48:11.456Z,6.38
2022-12-11T11:50:42.489Z,8.50
2022-12-11T11:53:13.537Z,7.53
2022-12-11T11:55:45.560Z,5.97
2022-12-11T11:58:15.546Z,9.73
2022-12-11T12:00:43.866Z,6.70
2022-12-11T12:03:14.333Z,8.20
2022-12-11T12:05:46.266Z,8.15
2022-12-11T12:08:16.350Z,7.72
2022-12-11T12:10:49.666Z,7.72
2022-12-11T12:13:47.983Z,7.30
2022-12-11T12:16:44.083Z,8.18
2022-12-11T12:19:08.401Z,8.02
2022-12-11T12:21:37.751Z,7.50
2022-12-11T12:24:16.665Z,8.20
2022-12-11T12:26:50.749Z,8.93
2022-12-11T12:29:27.202Z,7.90
2022-12-11T12:32:02.461Z,8.63
2022-12-11T12:34:38.352Z,5.97
2022-12-11T12:37:10.107Z,7.18
2022-12-11T12:39:41.499Z,7.78
2022-12-11T12:42:14.804Z,6.97
2022-12-11T12:44:48.240Z,7.93
2022-12-11T12:47:18.402Z,8.75
2022-12-11T12:49:47.799Z,8.60
2022-12-11T12:52:17.824Z,9.68
2022-12-11T12:55:09.444Z,13.38
2022-12-11T12:57:42.073Z,8.00
2022-12-11T13:00:13.489Z,10.73
2022-12-11T13:02:50.089Z,7.80
2022-12-11T13:05:22.368Z,10.68
2022-12-11T13:07:54.391Z,7.93
2022-12-11T13:10:27.600Z,9.43
2022-12-11T13:12:57.627Z,12.35
2022-12-11T13:15:34.547Z,11.02
2022-12-11T13:18:03.961Z,11.02
2022-12-11T13:20:33.485Z,12.57
2022-12-11T13:23:19.638Z,10.02
2022-12-11T13:25:49.413Z,8.88
2022-12-11T13:28:35.403Z,13.07
2022-12-11T13:31:07.617Z,12.20
2022-12-11T13:33:40.419Z,10.90
2022-12-11T13:36:24.783Z,5.90
2022-12-11T13:38:55.048Z,13.35
2022-12-11T13:41:23.065Z,10.55
2022-12-11T13:43:52.352Z,12.20
2022-12-11T13:46:24.917Z,9.52
2022-12-11T13:48:57.415Z,10.65
2022-12-11T13:51:27.116Z,8.45
2022-12-11T13:54:05.699Z,9.68
2022-12-11T13:56:34.364Z,9.23
2022-12-11T13:59:04.090Z,10.10
2022-12-11T14:01:34.709Z,9.10
2022-12-11T14:04:06.763Z,9.18
2022-12-11T14:06:36.239Z,9.48
2022-12-11T14:09:06.323Z,8.40
2022-12-11T14:11:35.892Z,11.50
2022-12-11T14:14:05.027Z,8.50
2022-12-11T14:16:34.816Z,7.93
2022-12-11T14:19:05.158Z,14.93
2022-12-11T14:21:35.522Z,11.02
2022-12-11T14:24:05.146Z,8.38
2022-12-11T14:26:34.282Z,8.02
2022-12-11T14:29:04.621Z,8.88
2022-12-11T14:31:35.751Z,11.13
2022-12-11T14:34:07.813Z,8.98
2022-12-11T14:36:37.912Z,9.35
2022-12-11T14:39:08.547Z,8.20
2022-12-11T14:41:42.611Z,12.02
2022-12-11T14:44:14.485Z,7.28
2022-12-11T14:46:45.471Z,6.18
2022-12-11T14:49:19.013Z,8.30
2022-12-11T14:51:47.437Z,6.55
2022-12-11T14:54:20.418Z,6.93
2022-12-11T14:56:48.755Z,8.55
2022-12-11T14:59:19.636Z,5.70
2022-12-11T15:01:58.369Z,10.32
2022-12-11T15:04:30.448Z,7.30
2022-12-11T15:06:58.958Z,7.78
2022-12-11T15:09:28.440Z,10.13
2022-12-11T15:11:57.292Z,5.70
2022-12-11T15:14:25.776Z,5.15
2022-12-11T15:16:55.276Z,7.30
2022-12-11T15:19:24.293Z,6.03
2022-12-11T15:21:55.549Z,11.95
2022-12-11T15:24:26.995Z,6.55
2022-12-11T15:26:58.590Z,8.35
2022-12-11T15:29:28.777Z,8.93
2022-12-11T15:32:01.224Z,8.88
2022-12-11T15:34:33.407Z,7.07
2022-12-11T15:37:03.087Z,6.78
2022-12-11T15:39:30.996Z,8.52
2022-12-11T15:41:58.945Z,8.57
2022-12-11T15:44:27.099Z,5.22
2022-12-11T15:46:55.239Z,6.80
2022-12-11T15:49:24.943Z,5.95
2022-12-11T15:51:56.486Z,7.78
2022-12-11T15:54:26.688Z,7.78
2022-12-11T15:56:56.007Z,12.50
2022-12-11T15:59:23.994Z,9.18
2022-12-11T16:01:52.021Z,8.88
2022-12-11T16:04:20.227Z,9.20
2022-12-11T16:06:48.252Z,8.98
2022-12-11T16:09:16.218Z,9.57
2022-12-11T16:11:47.625Z,8.23
2022-12-11T16:14:16.519Z,9.82
2022-12-11T16:16:44.261Z,9.38
2022-12-11T16:19:12.136Z,8.85
2022-12-11T16:21:39.916Z,10.38
2022-12-11T16:24:08.260Z,11.13
2022-12-11T16:26:36.329Z,8.52
2022-12-11T16:29:05.797Z,9.38
2022-12-11T16:31:34.996Z,12.15
2022-12-11T16:34:03.372Z,10.95
2022-12-11T16:36:31.311Z,13.02
2022-12-11T16:38:59.243Z,9.43
2022-12-11T16:41:27.642Z,10.02
2022-12-11T16:43:56.818Z,10.63
2022-12-11T16:46:27.180Z,10.43
2022-12-11T16:48:55.664Z,9.82
2022-12-11T16:51:23.683Z,9.10
2022-12-11T16:53:54.303Z,9.95
2022-12-11T16:56:22.438Z,10.70
2022-12-11T16:58:50.423Z,10.57
2022-12-11T17:01:18.394Z,11.65
2022-12-11T17:03:48.020Z,11.93
2022-12-11T17:06:16.897Z,9.77
2022-12-11T17:08:45.118Z,10.80
2022-12-11T17:11:14.029Z,10.57
2022-12-11T17:13:42.487Z,10.00
2022-12-11T17:16:11.348Z,10.27
2022-12-11T17:18:39.550Z,8.77
2022-12-11T17:21:10.611Z,10.05
2022-12-11T17:23:38.551Z,8.52
2022-12-11T17:26:08.766Z,9.85
2022-12-11T17:28:37.776Z,10.73
2022-12-11T17:31:06.746Z,9.32
2022-12-11T17:33:34.800Z,10.98
2022-12-11T17:36:03.268Z,10.25
2022-12-11T17:38:33.315Z,10.27
2022-12-11T17:41:01.253Z,8.38
2022-12-11T17:43:29.483Z,9.68
2022-12-11T17:45:57.457Z,10.32
2022-12-11T17:48:25.579Z,8.15
2022-12-11T17:50:54.279Z,10.50
2022-12-11T17:53:23.515Z,10.25
2022-12-11T17:55:53.040Z,10.30
2022-12-11T17:58:23.339Z,10.00
2022-12-11T18:00:53.124Z,12.77
2022-12-11T18:03:21.533Z,9.52
2022-12-11T18:05:51.826Z,10.55
2022-12-11T18:08:21.260Z,10.32
2022-12-11T18:10:56.881Z,11.90
2022-12-11T18:13:25.148Z,10.77
2022-12-11T18:16:00.057Z,10.93
2022-12-11T18:18:28.045Z,10.80
2022-12-11T18:20:55.967Z,11.70
2022-12-11T18:23:23.916Z,10.85
2022-12-11T18:25:51.838Z,9.65
2022-12-11T18:28:21.336Z,10.35
2022-12-11T18:30:49.022Z,11.48
2022-12-11T18:33:16.869Z,10.00
2022-12-11T18:35:44.693Z,12.43
2022-12-11T18:38:12.711Z,12.18
2022-12-11T18:40:40.616Z,10.70
2022-12-11T18:43:08.541Z,11.23
2022-12-11T18:45:40.043Z,9.77
2022-12-11T18:48:08.632Z,12.52
2022-12-11T18:50:36.437Z,10.32
2022-12-11T18:53:04.611Z,10.40
2022-12-11T18:55:32.428Z,12.30
2022-12-11T18:58:00.550Z,9.32
2022-12-11T19:00:28.421Z,10.13
2022-12-11T19:02:57.813Z,9.48
2022-12-11T19:05:25.669Z,10.48
2022-12-11T19:07:53.577Z,11.50
2022-12-11T19:10:21.401Z,12.10
2022-12-11T19:12:49.426Z,10.80
2022-12-11T19:15:20.882Z,10.07
2022-12-11T19:17:51.701Z,13.00
2022-12-11T19:23:08.856Z,9.25
2022-12-11T19:25:42.668Z,11.65
2022-12-11T19:28:10.558Z,9.52
2022-12-11T19:30:42.526Z,9.65
2022-12-11T19:33:10.386Z,8.50
2022-12-11T19:35:39.735Z,10.90
2022-12-11T19:38:08.323Z,12.70
2022-12-11T19:40:39.980Z,9.00
2022-12-11T19:43:07.840Z,9.43
2022-12-11T19:45:35.535Z,9.10
2022-12-11T19:48:03.381Z,10.55
2022-12-11T19:50:31.250Z,9.35
2022-12-11T19:53:00.323Z,6.93
2022-12-11T19:55:27.973Z,9.13
2022-12-11T19:57:56.339Z,6.95
2022-12-11T20:00:24.592Z,9.95
2022-12-11T20:02:52.335Z,9.10
2022-12-11T20:05:20.175Z,7.20
2022-12-11T20:07:47.920Z,8.75
2022-12-11T20:10:17.228Z,4.80
2022-12-11T20:12:45.037Z,5.68
2022-12-11T20:15:13.510Z,4.00
2022-12-11T20:17:44.589Z,3.53
2022-12-11T20:20:12.881Z,4.03
2022-12-11T20:22:40.564Z,4.00
2022-12-11T20:25:08.612Z,5.32
2022-12-11T20:27:38.323Z,5.88
2022-12-11T20:30:06.736Z,4.22
2022-12-11T20:32:34.670Z,4.65
2022-12-11T20:35:02.539Z,4.45
2022-12-11T20:37:30.399Z,7.22
2022-12-11T20:39:58.312Z,3.67
2022-12-11T20:42:26.176Z,4.32
2022-12-11T20:44:55.464Z,4.38
2022-12-11T20:47:23.705Z,4.07
2022-12-11T20:49:52.076Z,2.53
2022-12-11T20:52:20.248Z,4.50
2022-12-11T20:54:48.219Z,5.82
2022-12-11T20:57:16.498Z,4.45
2022-12-11T20:59:44.561Z,5.65
2022-12-11T21:02:13.804Z,3.05
2022-12-11T21:04:42.334Z,2.97
2022-12-11T21:07:10.764Z,4.03
2022-12-11T21:09:39.114Z,5.03
2022-12-11T21:12:07.573Z,6.30
2022-12-11T21:14:35.248Z,6.43
2022-12-11T21:17:03.101Z,6.55
2022-12-11T21:19:32.235Z,4.13
2022-12-11T21:22:00.044Z,5.60
2022-12-11T21:24:29.784Z,3.60
2022-12-11T21:26:58.082Z,3.40
2022-12-11T21:29:27.018Z,5.65
2022-12-11T21:31:54.937Z,5.28
2022-12-11T21:34:25.511Z,5.03
2022-12-11T21:36:57.157Z,3.92
2022-12-11T21:39:25.660Z,5.57
2022-12-11T21:41:54.018Z,3.45
2022-12-11T21:47:09.790Z,3.58
2022-12-11T21:49:38.466Z,4.63
2022-12-11T21:52:08.443Z,6.80
2022-12-11T21:54:36.366Z,3.75
2022-12-11T21:57:04.322Z,8.82
2022-12-11T21:59:32.133Z,6.35
2022-12-11T22:02:00.017Z,3.88
2022-12-11T22:04:27.916Z,2.13
2022-12-11T22:06:55.729Z,3.70
2022-12-11T22:09:25.071Z,4.30
2022-12-11T22:11:58.089Z,2.47
2022-12-11T22:14:27.059Z,3.03
2022-12-11T22:16:54.973Z,3.38
2022-12-11T22:19:25.532Z,2.55
2022-12-11T22:21:55.728Z,3.55
2022-12-11T22:24:24.927Z,6.20
2022-12-11T22:26:54.669Z,1.98
2022-12-11T22:29:22.592Z,2.88
2022-12-11T22:31:50.560Z,1.55
2022-12-11T22:34:18.804Z,7.82
2022-12-11T22:36:46.744Z,2.40
2022-12-11T22:39:15.272Z,3.13
2022-12-11T22:41:44.629Z,1.63
2022-12-11T22:44:14.751Z,2.88
2022-12-11T22:46:48.211Z,2.47
2022-12-11T22:49:17.660Z,2.38
2022-12-11T22:51:45.505Z,4.85
2022-12-11T22:54:13.429Z,5.53
2022-12-11T22:56:41.546Z,4.70
2022-12-11T22:59:10.749Z,4.70
2022-12-11T23:01:38.663Z,3.42
2022-12-11T23:04:06.686Z,5.20
2022-12-11T23:06:34.588Z,2.60
2022-12-11T23:09:02.866Z,6.50
2022-12-11T23:11:32.430Z,4.57
2022-12-11T23:14:00.441Z,6.63
2022-12-11T23:16:29.844Z,3.50
2022-12-11T23:18:58.277Z,4.85
2022-12-11T23:21:27.271Z,4.85
2022-12-11T23:23:54.987Z,3.25
2022-12-11T23:26:23.665Z,4.15
2022-12-11T23:28:51.698Z,2.60
2022-12-11T23:31:19.672Z,6.00
2022-12-11T23:33:49.102Z,6.20
2022-12-11T23:36:16.901Z,3.67
2022-12-11T23:38:49.554Z,4.72
2022-12-11T23:41:20.527Z,2.90
2022-12-11T23:43:48.501Z,4.88
2022-12-11T23:46:17.348Z,5.38
2022-12-11T23:48:45.713Z,2.92
2022-12-11T23:51:16.238Z,4.10
2022-12-11T23:53:44.158Z,3.80
2022-12-11T23:56:12.838Z,3.58
2022-12-11T23:58:40.959Z,4.60
